sensor_id;sensor_type;location;lat;lon;timestamp;P1;durP1;ratioP1;P2;durP2;ratioP2
64651;SDS011;51062;45.120;37.660;2023-08-07T00:02:11;113.13;;;103.28;;
64651;SDS011;51062;45.120;37.660;2023-08-07T00:04:37;117.45;;;107.53;;
64651;SDS011;51062;45.120;37.660;2023-08-07T00:07:04;120.32;;;110.18;;
64651;SDS011;51062;45.120;37.660;2023-08-07T00:09:30;116.07;;;106.80;;
64651;SDS011;51062;45.120;37.660;2023-08-07T00:11:56;113.32;;;104.90;;
64651;SDS011;51062;45.120;37.660;2023-08-07T00:14:22;120.82;;;112.13;;
64651;SDS011;51062;45.120;37.660;2023-08-07T00:16:48;129.05;;;119.85;;
64651;SDS011;51062;45.120;37.660;2023-08-07T00:19:14;128.35;;;119.15;;
64651;SDS011;51062;45.120;37.660;2023-08-07T00:21:40;131.93;;;122.13;;
64651;SDS011;51062;45.120;37.660;2023-08-07T00:24:07;123.47;;;114.85;;
64651;SDS011;51062;45.120;37.660;2023-08-07T00:26:33;116.47;;;108.00;;
64651;SDS011;51062;45.120;37.660;2023-08-07T00:28:59;123.55;;;114.65;;
64651;SDS011;51062;45.120;37.660;2023-08-07T00:31:25;126.10;;;117.22;;
64651;SDS011;51062;45.120;37.660;2023-08-07T00:33:52;118.88;;;110.55;;
64651;SDS011;51062;45.120;37.660;2023-08-07T00:36:19;104.40;;;96.85;;
64651;SDS011;51062;45.120;37.660;2023-08-07T00:38:45;110.25;;;102.32;;
64651;SDS011;51062;45.120;37.660;2023-08-07T00:41:11;98.97;;;91.95;;
64651;SDS011;51062;45.120;37.660;2023-08-07T00:43:38;97.20;;;89.75;;
64651;SDS011;51062;45.120;37.660;2023-08-07T00:46:04;92.45;;;85.47;;
64651;SDS011;51062;45.120;37.660;2023-08-07T00:48:31;86.07;;;80.13;;
64651;SDS011;51062;45.120;37.660;2023-08-07T00:50:57;88.72;;;82.55;;
64651;SDS011;51062;45.120;37.660;2023-08-07T00:53:23;83.18;;;77.03;;
64651;SDS011;51062;45.120;37.660;2023-08-07T00:55:49;91.75;;;85.43;;
64651;SDS011;51062;45.120;37.660;2023-08-07T00:58:16;81.95;;;76.28;;
64651;SDS011;51062;45.120;37.660;2023-08-07T01:00:43;95.43;;;88.13;;
64651;SDS011;51062;45.120;37.660;2023-08-07T01:03:09;96.88;;;90.05;;
64651;SDS011;51062;45.120;37.660;2023-08-07T01:05:39;92.95;;;86.32;;
64651;SDS011;51062;45.120;37.660;2023-08-07T01:08:05;93.63;;;87.10;;
64651;SDS011;51062;45.120;37.660;2023-08-07T01:10:51;98.07;;;91.07;;
64651;SDS011;51062;45.120;37.660;2023-08-07T01:13:40;98.43;;;91.40;;
64651;SDS011;51062;45.120;37.660;2023-08-07T01:16:43;100.97;;;93.90;;
64651;SDS011;51062;45.120;37.660;2023-08-07T01:19:23;102.00;;;95.18;;
64651;SDS011;51062;45.120;37.660;2023-08-07T01:22:03;93.85;;;87.47;;
64651;SDS011;51062;45.120;37.660;2023-08-07T01:24:37;100.57;;;93.53;;
64651;SDS011;51062;45.120;37.660;2023-08-07T01:29:47;110.75;;;103.30;;
64651;SDS011;51062;45.120;37.660;2023-08-07T01:32:28;108.43;;;100.65;;
64651;SDS011;51062;45.120;37.660;2023-08-07T01:35:01;104.53;;;97.38;;
64651;SDS011;51062;45.120;37.660;2023-08-07T01:37:29;103.63;;;96.35;;
64651;SDS011;51062;45.120;37.660;2023-08-07T01:40:00;99.20;;;92.20;;
64651;SDS011;51062;45.120;37.660;2023-08-07T01:42:29;97.05;;;89.72;;
64651;SDS011;51062;45.120;37.660;2023-08-07T01:44:57;110.32;;;101.97;;
64651;SDS011;51062;45.120;37.660;2023-08-07T01:47:24;109.63;;;101.18;;
64651;SDS011;51062;45.120;37.660;2023-08-07T01:49:50;107.57;;;99.60;;
64651;SDS011;51062;45.120;37.660;2023-08-07T01:52:16;104.68;;;97.18;;
64651;SDS011;51062;45.120;37.660;2023-08-07T01:54:42;104.88;;;97.13;;
64651;SDS011;51062;45.120;37.660;2023-08-07T01:57:08;105.07;;;97.50;;
64651;SDS011;51062;45.120;37.660;2023-08-07T01:59:34;106.78;;;97.80;;
64651;SDS011;51062;45.120;37.660;2023-08-07T02:02:00;101.30;;;94.22;;
64651;SDS011;51062;45.120;37.660;2023-08-07T02:04:26;99.80;;;92.93;;
64651;SDS011;51062;45.120;37.660;2023-08-07T02:06:52;109.88;;;102.35;;
64651;SDS011;51062;45.120;37.660;2023-08-07T02:09:21;115.95;;;107.53;;
64651;SDS011;51062;45.120;37.660;2023-08-07T02:11:48;111.10;;;103.00;;
64651;SDS011;51062;45.120;37.660;2023-08-07T02:14:14;108.30;;;100.70;;
64651;SDS011;51062;45.120;37.660;2023-08-07T02:16:40;105.25;;;98.00;;
64651;SDS011;51062;45.120;37.660;2023-08-07T02:19:06;91.82;;;85.28;;
64651;SDS011;51062;45.120;37.660;2023-08-07T02:21:33;87.78;;;81.55;;
64651;SDS011;51062;45.120;37.660;2023-08-07T02:23:59;81.63;;;75.93;;
64651;SDS011;51062;45.120;37.660;2023-08-07T02:26:25;83.88;;;78.28;;
64651;SDS011;51062;45.120;37.660;2023-08-07T02:28:51;78.18;;;72.82;;
64651;SDS011;51062;45.120;37.660;2023-08-07T02:31:17;71.38;;;66.53;;
64651;SDS011;51062;45.120;37.660;2023-08-07T02:33:43;79.95;;;74.35;;
64651;SDS011;51062;45.120;37.660;2023-08-07T02:36:09;83.78;;;78.15;;
64651;SDS011;51062;45.120;37.660;2023-08-07T02:38:35;80.43;;;75.10;;
64651;SDS011;51062;45.120;37.660;2023-08-07T02:41:02;82.72;;;77.18;;
64651;SDS011;51062;45.120;37.660;2023-08-07T02:43:28;80.40;;;74.85;;
64651;SDS011;51062;45.120;37.660;2023-08-07T02:45:54;85.00;;;78.63;;
64651;SDS011;51062;45.120;37.660;2023-08-07T02:48:20;86.65;;;80.97;;
64651;SDS011;51062;45.120;37.660;2023-08-07T02:50:46;89.85;;;82.95;;
64651;SDS011;51062;45.120;37.660;2023-08-07T02:53:13;84.43;;;78.75;;
64651;SDS011;51062;45.120;37.660;2023-08-07T02:55:39;82.05;;;76.60;;
64651;SDS011;51062;45.120;37.660;2023-08-07T02:58:08;88.40;;;82.43;;
64651;SDS011;51062;45.120;37.660;2023-08-07T03:00:34;85.70;;;79.88;;
64651;SDS011;51062;45.120;37.660;2023-08-07T03:03:01;86.85;;;80.65;;
64651;SDS011;51062;45.120;37.660;2023-08-07T03:05:27;86.18;;;79.65;;
64651;SDS011;51062;45.120;37.660;2023-08-07T03:07:53;94.97;;;87.88;;
64651;SDS011;51062;45.120;37.660;2023-08-07T03:10:19;94.00;;;87.35;;
64651;SDS011;51062;45.120;37.660;2023-08-07T03:12:45;87.82;;;81.47;;
64651;SDS011;51062;45.120;37.660;2023-08-07T03:15:11;90.05;;;83.78;;
64651;SDS011;51062;45.120;37.660;2023-08-07T03:17:37;92.05;;;85.18;;
64651;SDS011;51062;45.120;37.660;2023-08-07T03:20:03;84.07;;;78.10;;
64651;SDS011;51062;45.120;37.660;2023-08-07T03:22:30;89.10;;;82.72;;
64651;SDS011;51062;45.120;37.660;2023-08-07T03:24:56;86.60;;;79.53;;
64651;SDS011;51062;45.120;37.660;2023-08-07T03:27:22;87.03;;;79.82;;
64651;SDS011;51062;45.120;37.660;2023-08-07T03:29:48;89.10;;;81.90;;
64651;SDS011;51062;45.120;37.660;2023-08-07T03:32:15;91.63;;;83.72;;
64651;SDS011;51062;45.120;37.660;2023-08-07T03:34:41;80.82;;;73.63;;
64651;SDS011;51062;45.120;37.660;2023-08-07T03:37:08;72.60;;;66.85;;
64651;SDS011;51062;45.120;37.660;2023-08-07T03:39:34;68.65;;;63.40;;
64651;SDS011;51062;45.120;37.660;2023-08-07T03:42:00;67.20;;;62.03;;
64651;SDS011;51062;45.120;37.660;2023-08-07T03:44:28;59.95;;;55.35;;
64651;SDS011;51062;45.120;37.660;2023-08-07T03:46:54;64.22;;;59.10;;
64651;SDS011;51062;45.120;37.660;2023-08-07T03:49:23;60.13;;;55.63;;
64651;SDS011;51062;45.120;37.660;2023-08-07T03:51:50;62.95;;;58.13;;
64651;SDS011;51062;45.120;37.660;2023-08-07T03:54:16;59.17;;;54.65;;
64651;SDS011;51062;45.120;37.660;2023-08-07T03:56:42;65.45;;;59.90;;
64651;SDS011;51062;45.120;37.660;2023-08-07T03:59:09;59.55;;;55.05;;
64651;SDS011;51062;45.120;37.660;2023-08-07T04:01:35;63.22;;;58.28;;
64651;SDS011;51062;45.120;37.660;2023-08-07T04:04:01;65.88;;;60.33;;
64651;SDS011;51062;45.120;37.660;2023-08-07T04:06:27;61.03;;;56.35;;
64651;SDS011;51062;45.120;37.660;2023-08-07T04:08:54;66.70;;;61.55;;
64651;SDS011;51062;45.120;37.660;2023-08-07T04:11:20;68.13;;;62.67;;
64651;SDS011;51062;45.120;37.660;2023-08-07T04:13:46;66.43;;;61.13;;
64651;SDS011;51062;45.120;37.660;2023-08-07T04:16:12;68.90;;;63.45;;
64651;SDS011;51062;45.120;37.660;2023-08-07T04:18:38;68.30;;;62.92;;
64651;SDS011;51062;45.120;37.660;2023-08-07T04:21:04;62.03;;;57.22;;
64651;SDS011;51062;45.120;37.660;2023-08-07T04:23:31;62.72;;;57.72;;
64651;SDS011;51062;45.120;37.660;2023-08-07T04:25:57;66.18;;;60.97;;
64651;SDS011;51062;45.120;37.660;2023-08-07T04:28:27;70.03;;;64.57;;
64651;SDS011;51062;45.120;37.660;2023-08-07T04:30:55;61.15;;;56.22;;
64651;SDS011;51062;45.120;37.660;2023-08-07T04:33:21;86.97;;;79.82;;
64651;SDS011;51062;45.120;37.660;2023-08-07T04:35:47;64.28;;;59.22;;
64651;SDS011;51062;45.120;37.660;2023-08-07T04:38:13;69.68;;;64.15;;
64651;SDS011;51062;45.120;37.660;2023-08-07T04:40:44;68.07;;;62.90;;
64651;SDS011;51062;45.120;37.660;2023-08-07T04:43:15;77.78;;;71.60;;
64651;SDS011;51062;45.120;37.660;2023-08-07T04:45:43;69.47;;;63.67;;
64651;SDS011;51062;45.120;37.660;2023-08-07T04:48:10;70.88;;;65.22;;
64651;SDS011;51062;45.120;37.660;2023-08-07T04:50:37;70.32;;;64.90;;
64651;SDS011;51062;45.120;37.660;2023-08-07T04:53:06;63.67;;;58.92;;
64651;SDS011;51062;45.120;37.660;2023-08-07T04:55:32;62.30;;;57.47;;
64651;SDS011;51062;45.120;37.660;2023-08-07T04:57:58;69.30;;;63.60;;
64651;SDS011;51062;45.120;37.660;2023-08-07T05:00:25;80.90;;;73.97;;
64651;SDS011;51062;45.120;37.660;2023-08-07T05:02:51;65.15;;;60.22;;
64651;SDS011;51062;45.120;37.660;2023-08-07T05:05:17;66.95;;;61.88;;
64651;SDS011;51062;45.120;37.660;2023-08-07T05:07:49;65.97;;;60.60;;
64651;SDS011;51062;45.120;37.660;2023-08-07T05:10:15;72.20;;;66.05;;
64651;SDS011;51062;45.120;37.660;2023-08-07T05:12:41;66.28;;;61.03;;
64651;SDS011;51062;45.120;37.660;2023-08-07T05:15:07;72.63;;;66.90;;
64651;SDS011;51062;45.120;37.660;2023-08-07T05:17:34;69.55;;;64.13;;
64651;SDS011;51062;45.120;37.660;2023-08-07T05:20:00;68.05;;;62.92;;
64651;SDS011;51062;45.120;37.660;2023-08-07T05:22:27;72.78;;;67.30;;
64651;SDS011;51062;45.120;37.660;2023-08-07T05:24:53;72.70;;;66.95;;
64651;SDS011;51062;45.120;37.660;2023-08-07T05:27:19;79.53;;;73.15;;
64651;SDS011;51062;45.120;37.660;2023-08-07T05:29:45;85.85;;;79.20;;
64651;SDS011;51062;45.120;37.660;2023-08-07T05:32:11;67.20;;;62.20;;
64651;SDS011;51062;45.120;37.660;2023-08-07T05:34:39;68.80;;;63.53;;
64651;SDS011;51062;45.120;37.660;2023-08-07T05:37:05;83.40;;;76.72;;
64651;SDS011;51062;45.120;37.660;2023-08-07T05:39:32;69.45;;;63.97;;
64651;SDS011;51062;45.120;37.660;2023-08-07T05:41:58;69.47;;;63.80;;
64651;SDS011;51062;45.120;37.660;2023-08-07T05:44:24;76.28;;;70.25;;
64651;SDS011;51062;45.120;37.660;2023-08-07T05:46:50;66.93;;;61.63;;
64651;SDS011;51062;45.120;37.660;2023-08-07T05:49:16;70.13;;;64.70;;
64651;SDS011;51062;45.120;37.660;2023-08-07T05:51:43;71.68;;;66.00;;
64651;SDS011;51062;45.120;37.660;2023-08-07T05:54:09;74.97;;;68.80;;
64651;SDS011;51062;45.120;37.660;2023-08-07T05:56:37;74.95;;;69.05;;
64651;SDS011;51062;45.120;37.660;2023-08-07T05:59:03;71.28;;;65.40;;
64651;SDS011;51062;45.120;37.660;2023-08-07T06:01:30;70.55;;;65.22;;
64651;SDS011;51062;45.120;37.660;2023-08-07T06:03:57;71.45;;;65.43;;
64651;SDS011;51062;45.120;37.660;2023-08-07T06:06:24;76.78;;;70.00;;
64651;SDS011;51062;45.120;37.660;2023-08-07T06:08:51;77.25;;;70.85;;
64651;SDS011;51062;45.120;37.660;2023-08-07T06:11:17;64.28;;;58.67;;
64651;SDS011;51062;45.120;37.660;2023-08-07T06:13:43;74.85;;;68.72;;
64651;SDS011;51062;45.120;37.660;2023-08-07T06:16:09;78.32;;;70.82;;
64651;SDS011;51062;45.120;37.660;2023-08-07T06:18:36;66.93;;;61.05;;
64651;SDS011;51062;45.120;37.660;2023-08-07T06:21:02;72.43;;;65.93;;
64651;SDS011;51062;45.120;37.660;2023-08-07T06:23:34;72.57;;;66.70;;
64651;SDS011;51062;45.120;37.660;2023-08-07T06:26:00;99.03;;;90.22;;
64651;SDS011;51062;45.120;37.660;2023-08-07T06:28:31;79.90;;;73.25;;
64651;SDS011;51062;45.120;37.660;2023-08-07T06:31:02;68.22;;;62.97;;
64651;SDS011;51062;45.120;37.660;2023-08-07T06:33:30;69.20;;;63.88;;
64651;SDS011;51062;45.120;37.660;2023-08-07T06:35:57;67.80;;;62.42;;
64651;SDS011;51062;45.120;37.660;2023-08-07T06:38:23;73.55;;;67.60;;
64651;SDS011;51062;45.120;37.660;2023-08-07T06:40:49;66.47;;;61.15;;
64651;SDS011;51062;45.120;37.660;2023-08-07T06:43:15;63.85;;;58.70;;
64651;SDS011;51062;45.120;37.660;2023-08-07T06:45:41;76.07;;;70.13;;
64651;SDS011;51062;45.120;37.660;2023-08-07T06:48:07;93.32;;;85.65;;
64651;SDS011;51062;45.120;37.660;2023-08-07T06:50:33;64.80;;;59.80;;
64651;SDS011;51062;45.120;37.660;2023-08-07T06:52:59;66.75;;;61.00;;
64651;SDS011;51062;45.120;37.660;2023-08-07T06:55:26;65.05;;;59.85;;
64651;SDS011;51062;45.120;37.660;2023-08-07T06:57:52;67.40;;;61.80;;
64651;SDS011;51062;45.120;37.660;2023-08-07T07:00:18;65.07;;;59.60;;
64651;SDS011;51062;45.120;37.660;2023-08-07T07:02:44;65.65;;;60.55;;
64651;SDS011;51062;45.120;37.660;2023-08-07T07:05:10;81.45;;;75.15;;
64651;SDS011;51062;45.120;37.660;2023-08-07T07:07:36;68.65;;;63.42;;
64651;SDS011;51062;45.120;37.660;2023-08-07T07:10:02;63.35;;;58.33;;
64651;SDS011;51062;45.120;37.660;2023-08-07T07:12:29;76.82;;;71.18;;
64651;SDS011;51062;45.120;37.660;2023-08-07T07:14:55;84.90;;;78.00;;
64651;SDS011;51062;45.120;37.660;2023-08-07T07:17:21;61.60;;;57.08;;
64651;SDS011;51062;45.120;37.660;2023-08-07T07:19:48;68.13;;;63.00;;
64651;SDS011;51062;45.120;37.660;2023-08-07T07:22:14;66.88;;;60.90;;
64651;SDS011;51062;45.120;37.660;2023-08-07T07:24:40;69.78;;;64.50;;
64651;SDS011;51062;45.120;37.660;2023-08-07T07:27:06;79.15;;;72.50;;
64651;SDS011;51062;45.120;37.660;2023-08-07T07:29:32;201.60;;;116.00;;
64651;SDS011;51062;45.120;37.660;2023-08-07T07:31:58;139.88;;;98.28;;
64651;SDS011;51062;45.120;37.660;2023-08-07T07:34:24;65.63;;;60.25;;
64651;SDS011;51062;45.120;37.660;2023-08-07T07:36:50;72.45;;;65.90;;
64651;SDS011;51062;45.120;37.660;2023-08-07T07:39:19;75.70;;;67.95;;
64651;SDS011;51062;45.120;37.660;2023-08-07T07:41:45;81.05;;;74.57;;
64651;SDS011;51062;45.120;37.660;2023-08-07T07:44:11;66.35;;;61.45;;
64651;SDS011;51062;45.120;37.660;2023-08-07T07:46:38;63.47;;;58.72;;
64651;SDS011;51062;45.120;37.660;2023-08-07T07:49:04;71.53;;;65.90;;
64651;SDS011;51062;45.120;37.660;2023-08-07T07:51:31;117.75;;;92.22;;
64651;SDS011;51062;45.120;37.660;2023-08-07T07:53:57;70.10;;;64.57;;
64651;SDS011;51062;45.120;37.660;2023-08-07T07:56:24;119.57;;;95.25;;
64651;SDS011;51062;45.120;37.660;2023-08-07T07:58:50;76.03;;;68.72;;
64651;SDS011;51062;45.120;37.660;2023-08-07T08:01:16;70.07;;;64.57;;
64651;SDS011;51062;45.120;37.660;2023-08-07T08:03:43;64.07;;;58.92;;
64651;SDS011;51062;45.120;37.660;2023-08-07T08:06:12;85.28;;;78.32;;
64651;SDS011;51062;45.120;37.660;2023-08-07T08:08:38;104.43;;;92.07;;
64651;SDS011;51062;45.120;37.660;2023-08-07T08:11:05;70.93;;;64.72;;
64651;SDS011;51062;45.120;37.660;2023-08-07T08:13:31;66.20;;;61.08;;
64651;SDS011;51062;45.120;37.660;2023-08-07T08:15:57;81.68;;;73.28;;
64651;SDS011;51062;45.120;37.660;2023-08-07T08:18:23;79.05;;;72.22;;
64651;SDS011;51062;45.120;37.660;2023-08-07T08:20:49;81.95;;;74.53;;
64651;SDS011;51062;45.120;37.660;2023-08-07T08:23:15;80.45;;;74.18;;
64651;SDS011;51062;45.120;37.660;2023-08-07T08:25:41;76.05;;;70.00;;
64651;SDS011;51062;45.120;37.660;2023-08-07T08:28:07;72.90;;;66.75;;
64651;SDS011;51062;45.120;37.660;2023-08-07T08:30:33;50.35;;;46.55;;
64651;SDS011;51062;45.120;37.660;2023-08-07T08:32:59;5.15;;;1.65;;
64651;SDS011;51062;45.120;37.660;2023-08-07T08:35:26;7.72;;;3.70;;
64651;SDS011;51062;45.120;37.660;2023-08-07T08:37:53;8.25;;;2.33;;
64651;SDS011;51062;45.120;37.660;2023-08-07T08:40:19;5.50;;;1.90;;
64651;SDS011;51062;45.120;37.660;2023-08-07T08:42:45;2.60;;;1.30;;
64651;SDS011;51062;45.120;37.660;2023-08-07T08:45:15;11.15;;;3.05;;
64651;SDS011;51062;45.120;37.660;2023-08-07T08:47:41;4.18;;;2.05;;
64651;SDS011;51062;45.120;37.660;2023-08-07T08:50:12;4.50;;;2.17;;
64651;SDS011;51062;45.120;37.660;2023-08-07T08:52:43;9.40;;;3.78;;
64651;SDS011;51062;45.120;37.660;2023-08-07T08:55:11;8.15;;;2.38;;
64651;SDS011;51062;45.120;37.660;2023-08-07T08:57:38;7.57;;;3.90;;
64651;SDS011;51062;45.120;37.660;2023-08-07T09:00:06;2.15;;;1.42;;
64651;SDS011;51062;45.120;37.660;2023-08-07T09:02:43;4.72;;;1.75;;
64651;SDS011;51062;45.120;37.660;2023-08-07T09:05:10;4.50;;;1.55;;
64651;SDS011;51062;45.120;37.660;2023-08-07T09:07:37;2.55;;;1.70;;
64651;SDS011;51062;45.120;37.660;2023-08-07T09:10:04;3.15;;;1.70;;
64651;SDS011;51062;45.120;37.660;2023-08-07T09:12:32;5.70;;;1.85;;
64651;SDS011;51062;45.120;37.660;2023-08-07T09:14:59;10.98;;;2.17;;
64651;SDS011;51062;45.120;37.660;2023-08-07T09:17:31;9.48;;;1.98;;
64651;SDS011;51062;45.120;37.660;2023-08-07T09:19:59;1.92;;;1.40;;
64651;SDS011;51062;45.120;37.660;2023-08-07T09:22:26;3.08;;;1.77;;
64651;SDS011;51062;45.120;37.660;2023-08-07T09:24:52;3.78;;;1.73;;
64651;SDS011;51062;45.120;37.660;2023-08-07T09:27:18;4.55;;;2.15;;
64651;SDS011;51062;45.120;37.660;2023-08-07T09:29:46;6.60;;;2.85;;
64651;SDS011;51062;45.120;37.660;2023-08-07T09:32:12;12.95;;;3.58;;
64651;SDS011;51062;45.120;37.660;2023-08-07T09:34:39;7.32;;;2.08;;
64651;SDS011;51062;45.120;37.660;2023-08-07T09:37:09;6.20;;;1.70;;
64651;SDS011;51062;45.120;37.660;2023-08-07T09:39:35;3.15;;;1.80;;
64651;SDS011;51062;45.120;37.660;2023-08-07T09:42:03;5.80;;;1.90;;
64651;SDS011;51062;45.120;37.660;2023-08-07T09:44:36;8.95;;;3.58;;
64651;SDS011;51062;45.120;37.660;2023-08-07T09:47:17;10.52;;;2.25;;
64651;SDS011;51062;45.120;37.660;2023-08-07T09:49:45;8.18;;;3.83;;
64651;SDS011;51062;45.120;37.660;2023-08-07T09:52:12;8.48;;;3.15;;
64651;SDS011;51062;45.120;37.660;2023-08-07T09:54:40;13.98;;;4.47;;
64651;SDS011;51062;45.120;37.660;2023-08-07T09:57:06;10.30;;;3.35;;
64651;SDS011;51062;45.120;37.660;2023-08-07T09:59:33;17.52;;;5.18;;
64651;SDS011;51062;45.120;37.660;2023-08-07T10:02:00;18.20;;;2.85;;
64651;SDS011;51062;45.120;37.660;2023-08-07T10:04:28;11.27;;;3.45;;
64651;SDS011;51062;45.120;37.660;2023-08-07T10:06:54;8.07;;;3.28;;
64651;SDS011;51062;45.120;37.660;2023-08-07T10:09:21;8.75;;;2.13;;
64651;SDS011;51062;45.120;37.660;2023-08-07T10:11:51;13.52;;;5.25;;
64651;SDS011;51062;45.120;37.660;2023-08-07T10:14:17;7.65;;;2.50;;
64651;SDS011;51062;45.120;37.660;2023-08-07T10:16:44;5.10;;;1.58;;
64651;SDS011;51062;45.120;37.660;2023-08-07T10:19:11;7.47;;;3.22;;
64651;SDS011;51062;45.120;37.660;2023-08-07T10:21:38;5.22;;;1.50;;
64651;SDS011;51062;45.120;37.660;2023-08-07T10:24:06;7.25;;;1.60;;
64651;SDS011;51062;45.120;37.660;2023-08-07T10:26:34;3.08;;;1.60;;
64651;SDS011;51062;45.120;37.660;2023-08-07T10:29:04;4.10;;;1.80;;
64651;SDS011;51062;45.120;37.660;2023-08-07T10:31:34;11.20;;;3.92;;
64651;SDS011;51062;45.120;37.660;2023-08-07T10:34:02;5.75;;;2.28;;
64651;SDS011;51062;45.120;37.660;2023-08-07T10:36:34;4.85;;;2.28;;
64651;SDS011;51062;45.120;37.660;2023-08-07T10:39:11;7.93;;;3.20;;
64651;SDS011;51062;45.120;37.660;2023-08-07T10:41:38;8.50;;;1.50;;
64651;SDS011;51062;45.120;37.660;2023-08-07T10:44:19;3.65;;;2.00;;
64651;SDS011;51062;45.120;37.660;2023-08-07T10:46:51;14.32;;;2.58;;
64651;SDS011;51062;45.120;37.660;2023-08-07T10:49:40;3.72;;;1.65;;
64651;SDS011;51062;45.120;37.660;2023-08-07T10:54:38;68.57;;;7.15;;
64651;SDS011;51062;45.120;37.660;2023-08-07T10:57:17;3.08;;;1.50;;
64651;SDS011;51062;45.120;37.660;2023-08-07T11:02:23;11.30;;;3.60;;
64651;SDS011;51062;45.120;37.660;2023-08-07T11:04:53;2.75;;;1.33;;
64651;SDS011;51062;45.120;37.660;2023-08-07T11:07:23;3.95;;;1.58;;
64651;SDS011;51062;45.120;37.660;2023-08-07T11:09:53;2.75;;;1.38;;
64651;SDS011;51062;45.120;37.660;2023-08-07T11:12:20;3.58;;;1.35;;
64651;SDS011;51062;45.120;37.660;2023-08-07T11:14:49;11.38;;;2.10;;
64651;SDS011;51062;45.120;37.660;2023-08-07T11:17:16;2.72;;;1.42;;
64651;SDS011;51062;45.120;37.660;2023-08-07T11:19:46;1.98;;;0.93;;
64651;SDS011;51062;45.120;37.660;2023-08-07T11:22:30;1.75;;;1.33;;
64651;SDS011;51062;45.120;37.660;2023-08-07T11:24:56;6.68;;;1.67;;
64651;SDS011;51062;45.120;37.660;2023-08-07T11:27:29;2.55;;;1.30;;
64651;SDS011;51062;45.120;37.660;2023-08-07T11:29:56;3.38;;;1.38;;
64651;SDS011;51062;45.120;37.660;2023-08-07T11:32:22;4.00;;;1.45;;
64651;SDS011;51062;45.120;37.660;2023-08-07T11:34:51;14.23;;;1.73;;
64651;SDS011;51062;45.120;37.660;2023-08-07T11:37:17;2.72;;;1.23;;
64651;SDS011;51062;45.120;37.660;2023-08-07T11:39:45;2.15;;;1.17;;
64651;SDS011;51062;45.120;37.660;2023-08-07T11:42:11;2.20;;;1.40;;
64651;SDS011;51062;45.120;37.660;2023-08-07T11:44:40;11.15;;;1.50;;
64651;SDS011;51062;45.120;37.660;2023-08-07T11:47:07;6.43;;;1.60;;
64651;SDS011;51062;45.120;37.660;2023-08-07T11:49:34;3.15;;;1.75;;
64651;SDS011;51062;45.120;37.660;2023-08-07T11:52:00;2.72;;;1.30;;
64651;SDS011;51062;45.120;37.660;2023-08-07T11:54:27;1.83;;;0.95;;
64651;SDS011;51062;45.120;37.660;2023-08-07T11:56:54;2.88;;;1.38;;
64651;SDS011;51062;45.120;37.660;2023-08-07T11:59:19;4.72;;;1.42;;
64651;SDS011;51062;45.120;37.660;2023-08-07T12:01:46;2.17;;;1.65;;
64651;SDS011;51062;45.120;37.660;2023-08-07T12:04:12;5.57;;;1.90;;
64651;SDS011;51062;45.120;37.660;2023-08-07T12:06:38;2.38;;;1.13;;
64651;SDS011;51062;45.120;37.660;2023-08-07T12:09:19;3.08;;;1.38;;
64651;SDS011;51062;45.120;37.660;2023-08-07T12:11:45;3.53;;;1.15;;
64651;SDS011;51062;45.120;37.660;2023-08-07T12:14:15;5.00;;;1.17;;
64651;SDS011;51062;45.120;37.660;2023-08-07T12:16:43;2.75;;;1.13;;
64651;SDS011;51062;45.120;37.660;2023-08-07T12:19:13;7.63;;;1.83;;
64651;SDS011;51062;45.120;37.660;2023-08-07T12:21:41;5.03;;;1.50;;
64651;SDS011;51062;45.120;37.660;2023-08-07T12:24:08;2.53;;;1.25;;
64651;SDS011;51062;45.120;37.660;2023-08-07T12:26:35;11.95;;;1.95;;
64651;SDS011;51062;45.120;37.660;2023-08-07T12:29:01;3.25;;;1.77;;
64651;SDS011;51062;45.120;37.660;2023-08-07T12:31:27;7.55;;;1.55;;
64651;SDS011;51062;45.120;37.660;2023-08-07T12:33:53;2.10;;;1.40;;
64651;SDS011;51062;45.120;37.660;2023-08-07T12:36:19;6.95;;;1.73;;
64651;SDS011;51062;45.120;37.660;2023-08-07T12:38:45;3.13;;;1.13;;
64651;SDS011;51062;45.120;37.660;2023-08-07T12:41:11;2.22;;;1.45;;
64651;SDS011;51062;45.120;37.660;2023-08-07T12:43:37;2.63;;;1.55;;
64651;SDS011;51062;45.120;37.660;2023-08-07T12:46:03;5.30;;;1.33;;
64651;SDS011;51062;45.120;37.660;2023-08-07T12:48:29;1.92;;;1.02;;
64651;SDS011;51062;45.120;37.660;2023-08-07T12:50:56;1.20;;;1.00;;
64651;SDS011;51062;45.120;37.660;2023-08-07T12:53:22;1.88;;;1.05;;
64651;SDS011;51062;45.120;37.660;2023-08-07T12:55:48;3.72;;;1.40;;
64651;SDS011;51062;45.120;37.660;2023-08-07T12:58:14;2.08;;;1.40;;
64651;SDS011;51062;45.120;37.660;2023-08-07T13:00:41;4.68;;;1.73;;
64651;SDS011;51062;45.120;37.660;2023-08-07T13:03:07;5.38;;;1.75;;
64651;SDS011;51062;45.120;37.660;2023-08-07T13:05:33;2.85;;;1.52;;
64651;SDS011;51062;45.120;37.660;2023-08-07T13:07:59;3.05;;;1.70;;
64651;SDS011;51062;45.120;37.660;2023-08-07T13:10:25;11.75;;;1.80;;
64651;SDS011;51062;45.120;37.660;2023-08-07T13:12:56;8.55;;;1.50;;
64651;SDS011;51062;45.120;37.660;2023-08-07T13:15:42;12.52;;;1.38;;
64651;SDS011;51062;45.120;37.660;2023-08-07T13:18:09;12.40;;;1.63;;
64651;SDS011;51062;45.120;37.660;2023-08-07T13:20:36;12.13;;;1.60;;
64651;SDS011;51062;45.120;37.660;2023-08-07T13:23:02;4.20;;;1.60;;
64651;SDS011;51062;45.120;37.660;2023-08-07T13:25:32;6.88;;;1.70;;
64651;SDS011;51062;45.120;37.660;2023-08-07T13:27:59;15.98;;;1.80;;
64651;SDS011;51062;45.120;37.660;2023-08-07T13:30:26;6.82;;;1.58;;
64651;SDS011;51062;45.120;37.660;2023-08-07T13:32:54;6.20;;;1.80;;
64651;SDS011;51062;45.120;37.660;2023-08-07T13:35:20;2.08;;;1.20;;
64651;SDS011;51062;45.120;37.660;2023-08-07T13:37:47;3.45;;;1.58;;
64651;SDS011;51062;45.120;37.660;2023-08-07T13:40:13;3.30;;;1.40;;
64651;SDS011;51062;45.120;37.660;2023-08-07T13:42:39;3.70;;;1.65;;
64651;SDS011;51062;45.120;37.660;2023-08-07T13:45:05;1.98;;;1.27;;
64651;SDS011;51062;45.120;37.660;2023-08-07T13:47:33;6.00;;;1.27;;
64651;SDS011;51062;45.120;37.660;2023-08-07T13:49:59;2.83;;;1.58;;
64651;SDS011;51062;45.120;37.660;2023-08-07T13:52:25;3.60;;;1.23;;
64651;SDS011;51062;45.120;37.660;2023-08-07T13:54:51;15.80;;;1.40;;
64651;SDS011;51062;45.120;37.660;2023-08-07T13:57:17;2.13;;;1.42;;
64651;SDS011;51062;45.120;37.660;2023-08-07T13:59:43;3.72;;;1.08;;
64651;SDS011;51062;45.120;37.660;2023-08-07T14:02:09;8.65;;;1.77;;
64651;SDS011;51062;45.120;37.660;2023-08-07T14:04:35;4.50;;;1.40;;
64651;SDS011;51062;45.120;37.660;2023-08-07T14:07:02;8.68;;;1.67;;
64651;SDS011;51062;45.120;37.660;2023-08-07T14:09:29;1.92;;;1.42;;
64651;SDS011;51062;45.120;37.660;2023-08-07T14:11:55;9.77;;;2.22;;
64651;SDS011;51062;45.120;37.660;2023-08-07T14:14:22;2.88;;;1.52;;
64651;SDS011;51062;45.120;37.660;2023-08-07T14:16:49;2.22;;;1.25;;
64651;SDS011;51062;45.120;37.660;2023-08-07T14:19:15;13.30;;;1.80;;
64651;SDS011;51062;45.120;37.660;2023-08-07T14:21:41;3.00;;;1.80;;
64651;SDS011;51062;45.120;37.660;2023-08-07T14:24:07;4.47;;;1.70;;
64651;SDS011;51062;45.120;37.660;2023-08-07T14:26:33;2.83;;;1.73;;